sensor_id;sensor_type;location;lat;lon;timestamp;P1;durP1;ratioP1;P2;durP2;ratioP2
17145;SDS011;8688;54.444;18.444;2022-10-13T00:01:08;55.67;;;26.90;;
17145;SDS011;8688;54.444;18.444;2022-10-13T00:03:38;59.37;;;26.90;;
17145;SDS011;8688;54.444;18.444;2022-10-13T00:06:10;63.50;;;28.13;;
17145;SDS011;8688;54.444;18.444;2022-10-13T00:08:37;56.93;;;27.43;;
17145;SDS011;8688;54.444;18.444;2022-10-13T00:11:09;59.33;;;25.07;;
17145;SDS011;8688;54.444;18.444;2022-10-13T00:13:37;58.40;;;25.57;;
17145;SDS011;8688;54.444;18.444;2022-10-13T00:16:05;58.73;;;25.90;;
17145;SDS011;8688;54.444;18.444;2022-10-13T00:18:33;53.00;;;25.17;;
17145;SDS011;8688;54.444;18.444;2022-10-13T00:21:05;56.07;;;25.77;;
17145;SDS011;8688;54.444;18.444;2022-10-13T00:23:33;55.47;;;26.07;;
17145;SDS011;8688;54.444;18.444;2022-10-13T00:26:01;52.53;;;25.10;;
17145;SDS011;8688;54.444;18.444;2022-10-13T00:28:30;51.30;;;24.20;;
17145;SDS011;8688;54.444;18.444;2022-10-13T00:30:57;50.20;;;23.83;;
17145;SDS011;8688;54.444;18.444;2022-10-13T00:33:25;46.20;;;22.47;;
17145;SDS011;8688;54.444;18.444;2022-10-13T00:35:53;43.63;;;21.83;;
17145;SDS011;8688;54.444;18.444;2022-10-13T00:38:21;50.03;;;22.50;;
17145;SDS011;8688;54.444;18.444;2022-10-13T00:40:50;41.60;;;21.90;;
17145;SDS011;8688;54.444;18.444;2022-10-13T00:43:20;41.67;;;21.53;;
17145;SDS011;8688;54.444;18.444;2022-10-13T00:45:49;40.13;;;20.30;;
17145;SDS011;8688;54.444;18.444;2022-10-13T00:48:18;41.63;;;19.97;;
17145;SDS011;8688;54.444;18.444;2022-10-13T00:50:49;39.77;;;19.70;;
17145;SDS011;8688;54.444;18.444;2022-10-13T00:53:18;35.03;;;17.50;;
17145;SDS011;8688;54.444;18.444;2022-10-13T00:55:52;35.40;;;17.57;;
17145;SDS011;8688;54.444;18.444;2022-10-13T00:58:21;32.47;;;16.93;;
17145;SDS011;8688;54.444;18.444;2022-10-13T01:00:50;34.47;;;17.07;;
17145;SDS011;8688;54.444;18.444;2022-10-13T01:03:19;36.53;;;17.30;;
17145;SDS011;8688;54.444;18.444;2022-10-13T01:05:47;34.73;;;17.47;;
17145;SDS011;8688;54.444;18.444;2022-10-13T01:08:18;31.47;;;16.70;;
17145;SDS011;8688;54.444;18.444;2022-10-13T01:10:51;32.80;;;18.00;;
17145;SDS011;8688;54.444;18.444;2022-10-13T01:13:30;34.30;;;17.43;;
17145;SDS011;8688;54.444;18.444;2022-10-13T01:16:06;29.53;;;16.20;;
17145;SDS011;8688;54.444;18.444;2022-10-13T01:18:39;34.53;;;16.53;;
17145;SDS011;8688;54.444;18.444;2022-10-13T01:21:17;34.47;;;17.80;;
17145;SDS011;8688;54.444;18.444;2022-10-13T01:26:57;32.60;;;16.90;;
17145;SDS011;8688;54.444;18.444;2022-10-13T01:30:02;30.53;;;15.83;;
17145;SDS011;8688;54.444;18.444;2022-10-13T01:32:35;28.57;;;16.53;;
17145;SDS011;8688;54.444;18.444;2022-10-13T01:35:15;34.67;;;16.60;;
17145;SDS011;8688;54.444;18.444;2022-10-13T01:37:47;30.93;;;16.70;;
17145;SDS011;8688;54.444;18.444;2022-10-13T01:40:21;32.40;;;16.83;;
17145;SDS011;8688;54.444;18.444;2022-10-13T01:42:54;32.73;;;16.77;;
17145;SDS011;8688;54.444;18.444;2022-10-13T01:45:27;29.38;;;16.55;;
17145;SDS011;8688;54.444;18.444;2022-10-13T01:47:58;30.13;;;15.80;;
17145;SDS011;8688;54.444;18.444;2022-10-13T01:50:27;29.70;;;15.90;;
17145;SDS011;8688;54.444;18.444;2022-10-13T01:52:57;32.73;;;16.50;;
17145;SDS011;8688;54.444;18.444;2022-10-13T01:55:27;34.65;;;16.20;;
17145;SDS011;8688;54.444;18.444;2022-10-13T01:57:55;33.43;;;16.60;;
17145;SDS011;8688;54.444;18.444;2022-10-13T02:00:23;26.17;;;14.40;;
17145;SDS011;8688;54.444;18.444;2022-10-13T02:02:59;34.27;;;16.03;;
17145;SDS011;8688;54.444;18.444;2022-10-13T02:05:36;30.43;;;15.60;;
17145;SDS011;8688;54.444;18.444;2022-10-13T02:08:14;32.43;;;16.33;;
17145;SDS011;8688;54.444;18.444;2022-10-13T02:10:49;34.28;;;16.77;;
17145;SDS011;8688;54.444;18.444;2022-10-13T02:13:23;31.13;;;15.83;;
17145;SDS011;8688;54.444;18.444;2022-10-13T02:15:53;28.13;;;15.47;;
17145;SDS011;8688;54.444;18.444;2022-10-13T02:18:26;36.27;;;15.73;;
17145;SDS011;8688;54.444;18.444;2022-10-13T02:20:57;33.40;;;16.03;;
17145;SDS011;8688;54.444;18.444;2022-10-13T02:23:25;27.03;;;15.60;;
17145;SDS011;8688;54.444;18.444;2022-10-13T02:25:54;35.63;;;15.53;;
17145;SDS011;8688;54.444;18.444;2022-10-13T02:28:22;29.95;;;15.38;;
17145;SDS011;8688;54.444;18.444;2022-10-13T02:30:50;33.30;;;15.63;;
17145;SDS011;8688;54.444;18.444;2022-10-13T02:33:17;29.13;;;14.80;;
17145;SDS011;8688;54.444;18.444;2022-10-13T02:35:47;29.80;;;15.57;;
17145;SDS011;8688;54.444;18.444;2022-10-13T02:38:14;27.47;;;15.50;;
17145;SDS011;8688;54.444;18.444;2022-10-13T02:40:42;30.87;;;15.00;;
17145;SDS011;8688;54.444;18.444;2022-10-13T02:43:09;31.03;;;15.00;;
17145;SDS011;8688;54.444;18.444;2022-10-13T02:45:37;32.03;;;14.90;;
17145;SDS011;8688;54.444;18.444;2022-10-13T02:48:04;25.57;;;14.47;;
17145;SDS011;8688;54.444;18.444;2022-10-13T02:50:32;23.63;;;14.53;;
17145;SDS011;8688;54.444;18.444;2022-10-13T02:53:01;24.53;;;14.17;;
17145;SDS011;8688;54.444;18.444;2022-10-13T02:55:28;27.90;;;14.13;;
17145;SDS011;8688;54.444;18.444;2022-10-13T02:57:55;25.60;;;13.53;;
17145;SDS011;8688;54.444;18.444;2022-10-13T03:00:23;25.90;;;14.63;;
17145;SDS011;8688;54.444;18.444;2022-10-13T03:02:51;28.33;;;14.13;;
17145;SDS011;8688;54.444;18.444;2022-10-13T03:05:19;29.80;;;14.10;;
17145;SDS011;8688;54.444;18.444;2022-10-13T03:07:46;27.57;;;13.80;;
17145;SDS011;8688;54.444;18.444;2022-10-13T03:10:16;25.97;;;13.63;;
17145;SDS011;8688;54.444;18.444;2022-10-13T03:12:43;25.52;;;13.77;;
17145;SDS011;8688;54.444;18.444;2022-10-13T03:15:11;21.03;;;13.13;;
17145;SDS011;8688;54.444;18.444;2022-10-13T03:17:38;23.30;;;13.77;;
17145;SDS011;8688;54.444;18.444;2022-10-13T03:20:06;25.98;;;14.23;;
17145;SDS011;8688;54.444;18.444;2022-10-13T03:22:34;29.97;;;14.00;;
17145;SDS011;8688;54.444;18.444;2022-10-13T03:25:02;30.17;;;13.73;;
17145;SDS011;8688;54.444;18.444;2022-10-13T03:27:31;26.70;;;13.97;;
17145;SDS011;8688;54.444;18.444;2022-10-13T03:29:59;26.40;;;14.23;;
17145;SDS011;8688;54.444;18.444;2022-10-13T03:32:28;25.80;;;14.20;;
17145;SDS011;8688;54.444;18.444;2022-10-13T03:34:56;24.03;;;12.33;;
17145;SDS011;8688;54.444;18.444;2022-10-13T03:37:23;26.17;;;14.33;;
17145;SDS011;8688;54.444;18.444;2022-10-13T03:39:51;26.43;;;13.17;;
17145;SDS011;8688;54.444;18.444;2022-10-13T03:42:19;27.03;;;13.07;;
17145;SDS011;8688;54.444;18.444;2022-10-13T03:44:48;24.20;;;13.23;;
17145;SDS011;8688;54.444;18.444;2022-10-13T03:47:15;25.33;;;13.50;;
17145;SDS011;8688;54.444;18.444;2022-10-13T03:49:43;23.60;;;13.30;;
17145;SDS011;8688;54.444;18.444;2022-10-13T03:52:10;27.40;;;13.07;;
17145;SDS011;8688;54.444;18.444;2022-10-13T03:54:37;23.50;;;13.33;;
17145;SDS011;8688;54.444;18.444;2022-10-13T03:57:05;22.75;;;13.20;;
17145;SDS011;8688;54.444;18.444;2022-10-13T03:59:32;26.73;;;13.20;;
17145;SDS011;8688;54.444;18.444;2022-10-13T04:02:01;22.67;;;13.03;;
17145;SDS011;8688;54.444;18.444;2022-10-13T04:04:28;23.53;;;12.53;;
17145;SDS011;8688;54.444;18.444;2022-10-13T04:06:56;21.80;;;12.07;;
17145;SDS011;8688;54.444;18.444;2022-10-13T04:09:23;22.27;;;12.23;;
17145;SDS011;8688;54.444;18.444;2022-10-13T04:11:51;21.03;;;11.60;;
17145;SDS011;8688;54.444;18.444;2022-10-13T04:14:18;22.63;;;12.17;;
17145;SDS011;8688;54.444;18.444;2022-10-13T04:16:46;21.30;;;12.53;;
17145;SDS011;8688;54.444;18.444;2022-10-13T04:19:14;21.67;;;12.10;;
17145;SDS011;8688;54.444;18.444;2022-10-13T04:21:42;27.43;;;12.67;;
17145;SDS011;8688;54.444;18.444;2022-10-13T04:24:10;21.50;;;12.50;;
17145;SDS011;8688;54.444;18.444;2022-10-13T04:26:39;23.67;;;13.23;;
17145;SDS011;8688;54.444;18.444;2022-10-13T04:29:08;22.27;;;12.27;;
17145;SDS011;8688;54.444;18.444;2022-10-13T04:31:37;21.37;;;11.80;;
17145;SDS011;8688;54.444;18.444;2022-10-13T04:34:04;28.55;;;13.80;;
17145;SDS011;8688;54.444;18.444;2022-10-13T04:36:34;22.90;;;13.48;;
17145;SDS011;8688;54.444;18.444;2022-10-13T04:39:01;23.00;;;12.50;;
17145;SDS011;8688;54.444;18.444;2022-10-13T04:41:29;20.08;;;11.93;;
17145;SDS011;8688;54.444;18.444;2022-10-13T04:43:56;26.57;;;13.53;;
17145;SDS011;8688;54.444;18.444;2022-10-13T04:46:27;22.27;;;12.43;;
17145;SDS011;8688;54.444;18.444;2022-10-13T04:48:55;26.00;;;11.97;;
17145;SDS011;8688;54.444;18.444;2022-10-13T04:51:23;23.00;;;11.83;;
17145;SDS011;8688;54.444;18.444;2022-10-13T04:53:56;19.27;;;10.37;;
17145;SDS011;8688;54.444;18.444;2022-10-13T04:56:25;22.33;;;11.43;;
17145;SDS011;8688;54.444;18.444;2022-10-13T04:58:53;19.07;;;10.37;;
17145;SDS011;8688;54.444;18.444;2022-10-13T05:01:21;21.17;;;10.70;;
17145;SDS011;8688;54.444;18.444;2022-10-13T05:03:50;20.53;;;10.43;;
17145;SDS011;8688;54.444;18.444;2022-10-13T05:06:19;18.50;;;10.13;;
17145;SDS011;8688;54.444;18.444;2022-10-13T05:08:48;21.40;;;10.17;;
17145;SDS011;8688;54.444;18.444;2022-10-13T05:11:17;24.50;;;10.80;;
17145;SDS011;8688;54.444;18.444;2022-10-13T05:13:45;20.87;;;10.20;;
17145;SDS011;8688;54.444;18.444;2022-10-13T05:16:12;21.73;;;9.90;;
17145;SDS011;8688;54.444;18.444;2022-10-13T05:18:41;26.40;;;11.20;;
17145;SDS011;8688;54.444;18.444;2022-10-13T05:21:10;24.00;;;10.50;;
17145;SDS011;8688;54.444;18.444;2022-10-13T05:23:39;18.17;;;9.73;;
17145;SDS011;8688;54.444;18.444;2022-10-13T05:26:08;17.80;;;9.53;;
17145;SDS011;8688;54.444;18.444;2022-10-13T05:28:41;18.00;;;9.37;;
17145;SDS011;8688;54.444;18.444;2022-10-13T05:31:10;20.87;;;8.57;;
17145;SDS011;8688;54.444;18.444;2022-10-13T05:33:39;18.90;;;8.63;;
17145;SDS011;8688;54.444;18.444;2022-10-13T05:36:07;23.33;;;9.33;;
17145;SDS011;8688;54.444;18.444;2022-10-13T05:38:36;18.43;;;9.90;;
17145;SDS011;8688;54.444;18.444;2022-10-13T05:41:03;25.77;;;10.23;;
17145;SDS011;8688;54.444;18.444;2022-10-13T05:43:32;19.37;;;9.47;;
17145;SDS011;8688;54.444;18.444;2022-10-13T05:46:01;18.70;;;9.70;;
17145;SDS011;8688;54.444;18.444;2022-10-13T05:48:29;15.93;;;9.03;;
17145;SDS011;8688;54.444;18.444;2022-10-13T05:50:58;19.33;;;8.90;;
17145;SDS011;8688;54.444;18.444;2022-10-13T05:53:28;22.93;;;9.07;;
17145;SDS011;8688;54.444;18.444;2022-10-13T05:56:00;20.57;;;11.10;;
17145;SDS011;8688;54.444;18.444;2022-10-13T05:58:32;28.33;;;13.70;;
17145;SDS011;8688;54.444;18.444;2022-10-13T06:01:03;23.90;;;11.80;;
17145;SDS011;8688;54.444;18.444;2022-10-13T06:03:32;24.97;;;13.93;;
17145;SDS011;8688;54.444;18.444;2022-10-13T06:06:00;24.67;;;11.40;;
17145;SDS011;8688;54.444;18.444;2022-10-13T06:08:27;28.67;;;11.33;;
17145;SDS011;8688;54.444;18.444;2022-10-13T06:10:55;22.97;;;9.77;;
17145;SDS011;8688;54.444;18.444;2022-10-13T06:13:23;18.40;;;9.47;;
17145;SDS011;8688;54.444;18.444;2022-10-13T06:15:50;18.70;;;9.67;;
17145;SDS011;8688;54.444;18.444;2022-10-13T06:18:20;21.83;;;9.70;;
17145;SDS011;8688;54.444;18.444;2022-10-13T06:20:47;21.17;;;9.67;;
17145;SDS011;8688;54.444;18.444;2022-10-13T06:23:15;18.33;;;9.80;;
17145;SDS011;8688;54.444;18.444;2022-10-13T06:25:46;21.80;;;9.63;;
17145;SDS011;8688;54.444;18.444;2022-10-13T06:28:14;18.83;;;9.17;;
17145;SDS011;8688;54.444;18.444;2022-10-13T06:30:42;16.70;;;8.17;;
17145;SDS011;8688;54.444;18.444;2022-10-13T06:33:12;15.70;;;8.23;;
17145;SDS011;8688;54.444;18.444;2022-10-13T06:35:41;15.70;;;7.87;;
17145;SDS011;8688;54.444;18.444;2022-10-13T06:38:08;16.30;;;7.43;;
17145;SDS011;8688;54.444;18.444;2022-10-13T06:40:35;21.53;;;8.53;;
17145;SDS011;8688;54.444;18.444;2022-10-13T06:43:03;18.73;;;7.47;;
17145;SDS011;8688;54.444;18.444;2022-10-13T06:45:31;18.00;;;7.50;;
17145;SDS011;8688;54.444;18.444;2022-10-13T06:47:58;12.87;;;6.27;;
17145;SDS011;8688;54.444;18.444;2022-10-13T06:50:25;13.50;;;6.43;;
17145;SDS011;8688;54.444;18.444;2022-10-13T06:52:55;12.00;;;5.50;;
17145;SDS011;8688;54.444;18.444;2022-10-13T06:55:22;13.30;;;5.80;;
17145;SDS011;8688;54.444;18.444;2022-10-13T06:57:50;13.90;;;5.53;;
17145;SDS011;8688;54.444;18.444;2022-10-13T07:00:17;15.47;;;5.77;;
17145;SDS011;8688;54.444;18.444;2022-10-13T07:02:48;14.63;;;5.87;;
17145;SDS011;8688;54.444;18.444;2022-10-13T07:05:16;13.87;;;5.40;;
17145;SDS011;8688;54.444;18.444;2022-10-13T07:07:43;11.03;;;5.30;;
17145;SDS011;8688;54.444;18.444;2022-10-13T07:10:12;16.73;;;5.50;;
17145;SDS011;8688;54.444;18.444;2022-10-13T07:12:39;12.80;;;5.00;;
17145;SDS011;8688;54.444;18.444;2022-10-13T07:15:07;15.77;;;5.43;;
17145;SDS011;8688;54.444;18.444;2022-10-13T07:17:35;18.93;;;5.10;;
17145;SDS011;8688;54.444;18.444;2022-10-13T07:20:03;18.27;;;5.30;;
17145;SDS011;8688;54.444;18.444;2022-10-13T07:22:31;12.53;;;4.83;;
17145;SDS011;8688;54.444;18.444;2022-10-13T07:24:58;14.67;;;4.73;;
17145;SDS011;8688;54.444;18.444;2022-10-13T07:27:27;17.10;;;5.07;;
17145;SDS011;8688;54.444;18.444;2022-10-13T07:29:54;13.90;;;4.67;;
17145;SDS011;8688;54.444;18.444;2022-10-13T07:32:22;13.87;;;5.00;;
17145;SDS011;8688;54.444;18.444;2022-10-13T07:34:51;13.17;;;5.00;;
17145;SDS011;8688;54.444;18.444;2022-10-13T07:37:19;11.73;;;5.37;;
17145;SDS011;8688;54.444;18.444;2022-10-13T07:39:46;11.17;;;4.70;;
17145;SDS011;8688;54.444;18.444;2022-10-13T07:42:14;11.65;;;4.50;;
17145;SDS011;8688;54.444;18.444;2022-10-13T07:44:43;12.13;;;4.47;;
17145;SDS011;8688;54.444;18.444;2022-10-13T07:47:10;15.77;;;5.57;;
17145;SDS011;8688;54.444;18.444;2022-10-13T07:49:37;14.07;;;4.93;;
17145;SDS011;8688;54.444;18.444;2022-10-13T07:52:05;14.10;;;4.80;;
17145;SDS011;8688;54.444;18.444;2022-10-13T07:54:32;16.08;;;5.22;;
17145;SDS011;8688;54.444;18.444;2022-10-13T07:56:59;13.20;;;4.50;;
17145;SDS011;8688;54.444;18.444;2022-10-13T07:59:27;11.25;;;4.65;;
17145;SDS011;8688;54.444;18.444;2022-10-13T08:01:56;14.13;;;5.00;;
17145;SDS011;8688;54.444;18.444;2022-10-13T08:04:24;16.98;;;4.72;;
17145;SDS011;8688;54.444;18.444;2022-10-13T08:06:55;18.90;;;5.20;;
17145;SDS011;8688;54.444;18.444;2022-10-13T08:09:23;15.35;;;4.97;;
17145;SDS011;8688;54.444;18.444;2022-10-13T08:11:50;15.68;;;5.15;;
17145;SDS011;8688;54.444;18.444;2022-10-13T08:14:17;14.48;;;4.95;;
17145;SDS011;8688;54.444;18.444;2022-10-13T08:16:45;12.32;;;5.20;;
17145;SDS011;8688;54.444;18.444;2022-10-13T08:19:15;15.07;;;4.65;;
17145;SDS011;8688;54.444;18.444;2022-10-13T08:21:44;15.35;;;5.03;;
17145;SDS011;8688;54.444;18.444;2022-10-13T08:24:12;12.18;;;4.47;;
17145;SDS011;8688;54.444;18.444;2022-10-13T08:26:41;9.52;;;4.28;;
17145;SDS011;8688;54.444;18.444;2022-10-13T08:29:10;11.48;;;4.35;;
17145;SDS011;8688;54.444;18.444;2022-10-13T08:31:38;13.57;;;4.18;;
17145;SDS011;8688;54.444;18.444;2022-10-13T08:34:05;11.82;;;4.03;;
17145;SDS011;8688;54.444;18.444;2022-10-13T08:36:34;12.23;;;3.95;;
17145;SDS011;8688;54.444;18.444;2022-10-13T08:39:02;11.27;;;4.10;;
17145;SDS011;8688;54.444;18.444;2022-10-13T08:41:31;11.30;;;4.30;;
17145;SDS011;8688;54.444;18.444;2022-10-13T08:44:03;13.02;;;4.20;;
17145;SDS011;8688;54.444;18.444;2022-10-13T08:46:32;8.50;;;3.88;;
17145;SDS011;8688;54.444;18.444;2022-10-13T08:49:08;11.93;;;4.05;;
17145;SDS011;8688;54.444;18.444;2022-10-13T08:51:40;11.68;;;4.13;;
17145;SDS011;8688;54.444;18.444;2022-10-13T08:54:08;11.95;;;3.72;;
17145;SDS011;8688;54.444;18.444;2022-10-13T08:56:38;15.85;;;4.60;;
17145;SDS011;8688;54.444;18.444;2022-10-13T08:59:08;10.15;;;3.78;;
17145;SDS011;8688;54.444;18.444;2022-10-13T09:01:41;10.70;;;4.00;;
17145;SDS011;8688;54.444;18.444;2022-10-13T09:04:16;6.00;;;3.50;;
17145;SDS011;8688;54.444;18.444;2022-10-13T09:06:55;12.32;;;3.58;;
17145;SDS011;8688;54.444;18.444;2022-10-13T09:09:28;8.23;;;3.55;;
17145;SDS011;8688;54.444;18.444;2022-10-13T09:11:55;11.38;;;3.53;;
17145;SDS011;8688;54.444;18.444;2022-10-13T09:14:24;7.97;;;3.10;;
17145;SDS011;8688;54.444;18.444;2022-10-13T09:16:53;8.93;;;3.38;;
17145;SDS011;8688;54.444;18.444;2022-10-13T09:19:23;8.90;;;3.70;;
17145;SDS011;8688;54.444;18.444;2022-10-13T09:21:53;11.07;;;3.67;;
17145;SDS011;8688;54.444;18.444;2022-10-13T09:24:24;11.00;;;3.47;;
17145;SDS011;8688;54.444;18.444;2022-10-13T09:27:01;11.15;;;3.80;;
17145;SDS011;8688;54.444;18.444;2022-10-13T09:29:30;12.52;;;3.30;;
17145;SDS011;8688;54.444;18.444;2022-10-13T09:32:12;8.70;;;3.33;;
17145;SDS011;8688;54.444;18.444;2022-10-13T09:34:42;11.73;;;3.42;;
17145;SDS011;8688;54.444;18.444;2022-10-13T09:37:17;9.63;;;3.40;;
17145;SDS011;8688;54.444;18.444;2022-10-13T09:39:45;8.48;;;3.08;;
17145;SDS011;8688;54.444;18.444;2022-10-13T09:42:26;12.18;;;3.50;;
17145;SDS011;8688;54.444;18.444;2022-10-13T09:44:56;10.07;;;3.20;;
17145;SDS011;8688;54.444;18.444;2022-10-13T09:47:26;9.68;;;4.00;;
17145;SDS011;8688;54.444;18.444;2022-10-13T09:50:00;9.68;;;3.30;;
17145;SDS011;8688;54.444;18.444;2022-10-13T09:52:41;10.13;;;3.28;;
17145;SDS011;8688;54.444;18.444;2022-10-13T09:55:25;8.77;;;3.42;;
17145;SDS011;8688;54.444;18.444;2022-10-13T09:57:57;12.48;;;4.38;;
17145;SDS011;8688;54.444;18.444;2022-10-13T10:00:30;9.30;;;3.42;;
17145;SDS011;8688;54.444;18.444;2022-10-13T10:02:59;8.45;;;3.67;;
17145;SDS011;8688;54.444;18.444;2022-10-13T10:05:33;8.85;;;3.85;;
17145;SDS011;8688;54.444;18.444;2022-10-13T10:08:11;9.98;;;3.85;;
17145;SDS011;8688;54.444;18.444;2022-10-13T10:10:41;9.90;;;3.80;;
17145;SDS011;8688;54.444;18.444;2022-10-13T10:13:11;9.15;;;3.72;;
17145;SDS011;8688;54.444;18.444;2022-10-13T10:15:43;9.02;;;3.80;;
17145;SDS011;8688;54.444;18.444;2022-10-13T10:18:17;10.60;;;4.20;;
17145;SDS011;8688;54.444;18.444;2022-10-13T10:20:57;8.13;;;3.67;;
17145;SDS011;8688;54.444;18.444;2022-10-13T10:23:35;9.35;;;3.95;;
17145;SDS011;8688;54.444;18.444;2022-10-13T10:26:10;10.07;;;4.13;;
17145;SDS011;8688;54.444;18.444;2022-10-13T10:28:45;10.77;;;4.03;;
17145;SDS011;8688;54.444;18.444;2022-10-13T10:31:41;9.82;;;3.90;;
17145;SDS011;8688;54.444;18.444;2022-10-13T10:34:27;10.38;;;4.07;;
17145;SDS011;8688;54.444;18.444;2022-10-13T10:37:14;12.57;;;3.80;;
17145;SDS011;8688;54.444;18.444;2022-10-13T10:39:50;13.57;;;4.10;;
17145;SDS011;8688;54.444;18.444;2022-10-13T10:42:41;11.45;;;4.03;;
17145;SDS011;8688;54.444;18.444;2022-10-13T10:45:17;9.23;;;3.80;;
17145;SDS011;8688;54.444;18.444;2022-10-13T10:47:48;10.95;;;3.88;;
17145;SDS011;8688;54.444;18.444;2022-10-13T10:50:18;9.90;;;3.60;;
17145;SDS011;8688;54.444;18.444;2022-10-13T10:52:48;10.27;;;3.45;;
17145;SDS011;8688;54.444;18.444;2022-10-13T10:55:25;11.07;;;3.63;;
17145;SDS011;8688;54.444;18.444;2022-10-13T10:58:04;11.57;;;3.72;;
17145;SDS011;8688;54.444;18.444;2022-10-13T11:00:40;9.30;;;3.40;;
17145;SDS011;8688;54.444;18.444;2022-10-13T11:03:17;9.80;;;3.60;;
17145;SDS011;8688;54.444;18.444;2022-10-13T11:05:58;10.55;;;3.75;;
17145;SDS011;8688;54.444;18.444;2022-10-13T11:08:27;10.40;;;3.50;;
17145;SDS011;8688;54.444;18.444;2022-10-13T11:13:57;11.27;;;4.28;;
17145;SDS011;8688;54.444;18.444;2022-10-13T11:16:28;10.50;;;4.22;;
17145;SDS011;8688;54.444;18.444;2022-10-13T11:19:02;12.80;;;3.97;;
17145;SDS011;8688;54.444;18.444;2022-10-13T11:27:56;10.23;;;4.15;;
17145;SDS011;8688;54.444;18.444;2022-10-13T11:30:41;9.38;;;3.65;;
17145;SDS011;8688;54.444;18.444;2022-10-13T11:33:33;10.90;;;3.58;;
17145;SDS011;8688;54.444;18.444;2022-10-13T11:42:48;11.13;;;3.50;;
17145;SDS011;8688;54.444;18.444;2022-10-13T11:51:45;10.35;;;4.00;;
17145;SDS011;8688;54.444;18.444;2022-10-13T11:54:38;9.40;;;3.92;;
17145;SDS011;8688;54.444;18.444;2022-10-13T11:57:17;9.90;;;3.78;;
17145;SDS011;8688;54.444;18.444;2022-10-13T11:59:46;21.15;;;11.68;;
17145;SDS011;8688;54.444;18.444;2022-10-13T12:02:17;7.75;;;4.13;;
17145;SDS011;8688;54.444;18.444;2022-10-13T12:04:45;9.05;;;3.97;;
17145;SDS011;8688;54.444;18.444;2022-10-13T12:07:26;7.25;;;3.90;;
17145;SDS011;8688;54.444;18.444;2022-10-13T12:09:58;8.75;;;4.28;;
17145;SDS011;8688;54.444;18.444;2022-10-13T12:12:26;9.25;;;3.95;;
17145;SDS011;8688;54.444;18.444;2022-10-13T12:14:54;8.45;;;3.47;;
17145;SDS011;8688;54.444;18.444;2022-10-13T12:17:27;12.18;;;4.10;;
17145;SDS011;8688;54.444;18.444;2022-10-13T12:19:56;9.32;;;3.90;;
17145;SDS011;8688;54.444;18.444;2022-10-13T12:22:25;7.22;;;3.88;;
17145;SDS011;8688;54.444;18.444;2022-10-13T12:24:56;9.50;;;3.70;;
17145;SDS011;8688;54.444;18.444;2022-10-13T12:27:25;7.72;;;3.63;;
17145;SDS011;8688;54.444;18.444;2022-10-13T12:29:53;8.73;;;3.75;;
17145;SDS011;8688;54.444;18.444;2022-10-13T12:32:21;9.20;;;3.50;;
17145;SDS011;8688;54.444;18.444;2022-10-13T12:34:51;9.68;;;4.72;;
17145;SDS011;8688;54.444;18.444;2022-10-13T12:37:26;12.20;;;3.95;;
17145;SDS011;8688;54.444;18.444;2022-10-13T12:39:55;8.85;;;3.53;;
17145;SDS011;8688;54.444;18.444;2022-10-13T12:42:25;9.77;;;3.97;;
17145;SDS011;8688;54.444;18.444;2022-10-13T12:44:55;11.40;;;4.25;;
17145;SDS011;8688;54.444;18.444;2022-10-13T12:47:38;9.15;;;3.80;;
17145;SDS011;8688;54.444;18.444;2022-10-13T12:50:31;10.88;;;3.75;;
17145;SDS011;8688;54.444;18.444;2022-10-13T12:53:08;8.00;;;4.00;;
17145;SDS011;8688;54.444;18.444;2022-10-13T12:55:48;9.45;;;4.15;;
17145;SDS011;8688;54.444;18.444;2022-10-13T12:58:20;11.60;;;3.95;;
17145;SDS011;8688;54.444;18.444;2022-10-13T13:00:56;7.32;;;3.67;;
17145;SDS011;8688;54.444;18.444;2022-10-13T13:03:33;9.00;;;3.85;;
17145;SDS011;8688;54.444;18.444;2022-10-13T13:06:06;7.85;;;3.72;;
17145;SDS011;8688;54.444;18.444;2022-10-13T13:14:48;10.80;;;4.35;;
17145;SDS011;8688;54.444;18.444;2022-10-13T13:17:29;9.50;;;4.15;;
17145;SDS011;8688;54.444;18.444;2022-10-13T13:19:59;8.25;;;3.60;;
17145;SDS011;8688;54.444;18.444;2022-10-13T13:22:26;8.75;;;3.95;;
17145;SDS011;8688;54.444;18.444;2022-10-13T13:24:54;11.45;;;3.75;;
17145;SDS011;8688;54.444;18.444;2022-10-13T13:27:24;11.27;;;3.72;;
17145;SDS011;8688;54.444;18.444;2022-10-13T13:29:54;12.52;;;4.35;;
17145;SDS011;8688;54.444;18.444;2022-10-13T13:32:23;12.50;;;4.35;;
17145;SDS011;8688;54.444;18.444;2022-10-13T13:34:52;9.02;;;3.60;;
17145;SDS011;8688;54.444;18.444;2022-10-13T13:37:24;11.32;;;5.38;;
17145;SDS011;8688;54.444;18.444;2022-10-13T13:39:53;9.65;;;4.25;;
17145;SDS011;8688;54.444;18.444;2022-10-13T13:42:21;9.15;;;4.25;;
17145;SDS011;8688;54.444;18.444;2022-10-13T13:44:48;8.95;;;4.20;;
17145;SDS011;8688;54.444;18.444;2022-10-13T13:47:17;12.43;;;4.60;;
17145;SDS011;8688;54.444;18.444;2022-10-13T13:49:45;12.45;;;4.50;;
17145;SDS011;8688;54.444;18.444;2022-10-13T13:52:14;11.80;;;4.75;;
17145;SDS011;8688;54.444;18.444;2022-10-13T13:54:43;10.50;;;4.22;;
17145;SDS011;8688;54.444;18.444;2022-10-13T13:57:11;9.20;;;4.32;;
17145;SDS011;8688;54.444;18.444;2022-10-13T13:59:40;11.32;;;3.90;;
17145;SDS011;8688;54.444;18.444;2022-10-13T14:02:11;8.65;;;3.97;;
17145;SDS011;8688;54.444;18.444;2022-10-13T14:04:40;8.88;;;4.55;;
17145;SDS011;8688;54.444;18.444;2022-10-13T14:07:08;10.35;;;4.40;;
17145;SDS011;8688;54.444;18.444;2022-10-13T14:09:36;9.18;;;3.95;;
17145;SDS011;8688;54.444;18.444;2022-10-13T14:12:05;9.20;;;3.88;;
17145;SDS011;8688;54.444;18.444;2022-10-13T14:14:32;11.35;;;4.13;;
17145;SDS011;8688;54.444;18.444;2022-10-13T14:17:01;13.25;;;4.20;;
17145;SDS011;8688;54.444;18.444;2022-10-13T14:19:30;9.15;;;3.60;;
17145;SDS011;8688;54.444;18.444;2022-10-13T14:21:57;13.63;;;4.90;;
17145;SDS011;8688;54.444;18.444;2022-10-13T14:24:25;10.07;;;4.85;;
17145;SDS011;8688;54.444;18.444;2022-10-13T14:26:53;11.07;;;4.43;;
17145;SDS011;8688;54.444;18.444;2022-10-13T14:29:23;14.75;;;4.78;;
17145;SDS011;8688;54.444;18.444;2022-10-13T14:31:51;12.85;;;4.95;;
17145;SDS011;8688;54.444;18.444;2022-10-13T14:34:18;9.90;;;4.20;;
17145;SDS011;8688;54.444;18.444;2022-10-13T14:36:46;9.02;;;4.47;;
17145;SDS011;8688;54.444;18.444;2022-10-13T14:39:15;10.88;;;4.55;;
17145;SDS011;8688;54.444;18.444;2022-10-13T14:41:43;10.80;;;4.28;;
17145;SDS011;8688;54.444;18.444;2022-10-13T14:44:11;12.07;;;4.47;;
17145;SDS011;8688;54.444;18.444;2022-10-13T14:46:40;12.95;;;4.47;;
17145;SDS011;8688;54.444;18.444;2022-10-13T14:49:08;10.45;;;4.85;;
17145;SDS011;8688;54.444;18.444;2022-10-13T14:51:36;12.07;;;4.85;;
17145;SDS011;8688;54.444;18.444;2022-10-13T14:54:04;10.40;;;4.95;;
17145;SDS011;8688;54.444;18.444;2022-10-13T14:56:32;12.45;;;4.70;;
17145;SDS011;8688;54.444;18.444;2022-10-13T14:59:01;17.95;;;5.80;;
17145;SDS011;8688;54.444;18.444;2022-10-13T15:01:31;10.55;;;4.43;;
17145;SDS011;8688;54.444;18.444;2022-10-13T15:04:00;12.50;;;4.15;;
17145;SDS011;8688;54.444;18.444;2022-10-13T15:06:29;21.27;;;5.07;;
17145;SDS011;8688;54.444;18.444;2022-10-13T15:08:57;15.68;;;5.30;;
17145;SDS011;8688;54.444;18.444;2022-10-13T15:11:24;11.95;;;4.63;;
17145;SDS011;8688;54.444;18.444;2022-10-13T15:13:52;13.73;;;5.22;;
17145;SDS011;8688;54.444;18.444;2022-10-13T15:16:20;12.75;;;5.18;;
17145;SDS011;8688;54.444;18.444;2022-10-13T15:18:49;18.58;;;7.47;;
17145;SDS011;8688;54.444;18.444;2022-10-13T15:21:18;25.95;;;14.32;;